Time;durP1;ratioP1;P1;durP2;ratioP2;P2;SDS_P1;SDS_P2;PMS_P1;PMS_P2;Temp;Humidity;BMP_temperature;BMP_pressure;BME280_temperature;BME280_humidity;BME280_pressure;Samples;Min_cycle;Max_cycle;Signal;HPM_P1;HPM_P2
2023/03/09 00:00:12;;;;;;;;;;;;;;;10.88;46.87;99102.16;3103832;28;20011;-70
2023/03/09 00:01:44;;;;;;;;;;;;;;;10.84;47.03;99100.66;3103497;28;20010;-70
2023/03/09 00:03:15;;;;;;;;;;;;;;;10.84;46.99;99099.81;3102932;28;19991;-70
2023/03/09 00:04:47;;;;;;;;;;;;;;;10.84;47.07;99090.22;3103749;28;19988;-69
2023/03/09 00:06:20;;;;;;;;;;;;;;;10.83;47.03;99093.78;3103739;28;19951;-70
2023/03/09 00:07:53;;;;;;;;;;;;;;;10.82;47.32;99099.88;3103660;28;20048;-70
2023/03/09 00:09:24;;;;;;;;;;;;;;;10.82;47.10;99091.25;3103606;28;20314;-70
2023/03/09 00:10:56;;;;;;;;;;;;;;;10.83;47.19;99085.13;3103665;28;19985;-70
2023/03/09 00:12:28;;;;;;;;;;;;;;;10.85;47.07;99085.84;3103384;28;19930;-70
2023/03/09 00:13:59;;;;;;;;;;;;;;;10.84;47.21;99085.03;3109744;28;20471;-70
2023/03/09 00:15:31;;;;;;;;;;;;;;;10.84;47.06;99092.00;3109449;28;19937;-70
2023/03/09 00:17:02;;;;;;;;;;;;;;;10.85;47.12;99093.66;3103700;28;19933;-68
2023/03/09 00:18:34;;;;;;;;;;;;;;;10.84;47.20;99086.78;3103693;28;19929;-69
2023/03/09 00:20:17;;;;;;;;;;;;;;;10.83;47.12;99082.53;3103472;28;19936;-69
2023/03/09 00:21:51;;;;;;;;;;;;;;;10.79;47.39;99083.59;3103300;28;19929;-69
2023/03/09 00:23:21;;;;;;;;;;;;;;;10.78;47.14;99082.78;3103477;28;19933;-69
2023/03/09 00:24:55;;;;;;;;;;;;;;;10.68;47.29;99066.00;3103547;28;19956;-69
2023/03/09 00:26:26;;;;;;;;;;;;;;;10.76;47.51;99082.00;3103493;28;19981;-69
2023/03/09 00:27:57;;;;;;;;;;;;;;;10.76;47.23;99083.78;3103556;28;19936;-69
2023/03/09 00:29:31;;;;;;;;;;;;;;;10.74;47.09;99086.50;3103716;28;20009;-69
2023/03/09 00:31:03;;;;;;;;;;;;;;;10.72;47.12;99083.13;3103391;28;19929;-69
2023/03/09 00:32:34;;;;;;;;;;;;;;;10.67;47.76;99079.94;3103230;28;20110;-69
2023/03/09 00:34:06;;;;;;;;;;;;;;;10.64;47.42;99074.91;3103283;28;20033;-69
2023/03/09 00:35:38;;;;;;;;;;;;;;;10.61;47.65;99075.06;3103724;28;19944;-69
2023/03/09 00:37:11;;;;;;;;;;;;;;;10.57;47.63;99069.22;3103289;28;20061;-69
2023/03/09 00:38:42;;;;;;;;;;;;;;;10.56;47.89;99077.09;3095803;28;19934;-69
2023/03/09 00:40:14;;;;;;;;;;;;;;;10.57;47.71;99073.59;3099948;28;19941;-69
2023/03/09 00:41:46;;;;;;;;;;;;;;;10.56;47.65;99062.34;3099607;28;19935;-69
2023/03/09 00:43:17;;;;;;;;;;;;;;;10.56;47.65;99069.28;3103047;28;19934;-69
2023/03/09 00:44:50;;;;;;;;;;;;;;;10.55;47.93;99062.41;3103389;28;20687;-68
2023/03/09 00:46:21;;;;;;;;;;;;;;;10.52;48.07;99066.03;3102902;28;19936;-70
2023/03/09 00:47:53;;;;;;;;;;;;;;;10.49;47.80;99068.81;3103253;28;19933;-69
2023/03/09 00:49:24;;;;;;;;;;;;;;;10.46;48.13;99071.56;3103273;28;19937;-69
2023/03/09 00:50:55;;;;;;;;;;;;;;;10.40;48.26;99064.94;3103136;28;20500;-69
2023/03/09 00:52:28;;;;;;;;;;;;;;;10.35;48.36;99064.38;3102946;28;19929;-68
2023/03/09 00:54:00;;;;;;;;;;;;;;;10.33;48.78;99065.41;3103371;28;19936;-67
2023/03/09 00:55:31;;;;;;;;;;;;;;;10.30;48.86;99062.97;3102829;28;20007;-68
2023/03/09 00:57:03;;;;;;;;;;;;;;;10.27;49.02;99050.13;3103211;28;19933;-69
2023/03/09 00:58:35;;;;;;;;;;;;;;;10.25;48.91;99056.19;3102331;28;19936;-69
2023/03/09 01:00:07;;;;;;;;;;;;;;;10.21;48.89;99051.28;3102826;28;19936;-70
2023/03/09 01:01:39;;;;;;;;;;;;;;;10.19;48.97;99053.13;3102710;28;19930;-69
2023/03/09 01:03:09;;;;;;;;;;;;;;;10.17;49.14;99041.94;3092963;28;19988;-70
2023/03/09 01:04:41;;;;;;;;;;;;;;;10.18;49.31;99047.06;3102056;28;19951;-70
2023/03/09 01:06:13;;;;;;;;;;;;;;;10.16;49.39;99045.47;3106919;28;19929;-69
2023/03/09 01:07:46;;;;;;;;;;;;;;;10.13;49.33;99050.84;3107713;28;19925;-69
2023/03/09 01:09:17;;;;;;;;;;;;;;;10.12;49.47;99059.59;3108100;28;19933;-69
2023/03/09 01:10:49;;;;;;;;;;;;;;;10.12;49.48;99062.19;3104247;28;19933;-69
2023/03/09 01:12:20;;;;;;;;;;;;;;;10.13;49.19;99061.25;3108367;28;19925;-69
2023/03/09 01:13:51;;;;;;;;;;;;;;;10.14;49.18;99060.31;3113146;28;19983;-69
2023/03/09 01:15:23;;;;;;;;;;;;;;;10.12;49.11;99049.19;3114318;28;20477;-69
2023/03/09 01:16:54;;;;;;;;;;;;;;;10.11;49.24;99050.09;3108462;28;19926;-69
2023/03/09 01:18:26;;;;;;;;;;;;;;;10.08;49.37;99045.88;3108294;28;19987;-70
2023/03/09 01:19:56;;;;;;;;;;;;;;;10.03;49.57;99048.75;3107704;28;20444;-69
2023/03/09 01:21:28;;;;;;;;;;;;;;;10.02;49.60;99041.84;3108307;28;19932;-69
2023/03/09 01:23:01;;;;;;;;;;;;;;;9.99;49.73;99036.81;3107846;28;19932;-68
2023/03/09 01:24:32;;;;;;;;;;;;;;;9.97;49.65;99035.25;3107801;28;19939;-69
2023/03/09 01:26:04;;;;;;;;;;;;;;;9.96;49.83;99038.75;3108040;28;20035;-69
2023/03/09 01:27:36;;;;;;;;;;;;;;;9.96;49.66;99033.56;3108388;28;19926;-69
2023/03/09 01:29:07;;;;;;;;;;;;;;;9.92;49.77;99029.47;3107655;28;19934;-69
2023/03/09 01:30:39;;;;;;;;;;;;;;;9.91;49.85;99027.75;3107868;28;19933;-69
2023/03/09 01:32:10;;;;;;;;;;;;;;;9.92;49.86;99024.25;3107898;28;19949;-69
2023/03/09 01:33:43;;;;;;;;;;;;;;;9.96;49.92;99025.75;3107956;28;19948;-69
2023/03/09 01:35:14;;;;;;;;;;;;;;;9.97;49.44;99019.66;3108104;28;19926;-68
2023/03/09 01:36:46;;;;;;;;;;;;;;;10.00;49.27;99028.13;3107829;28;19926;-69
2023/03/09 01:38:18;;;;;;;;;;;;;;;9.97;49.71;99012.69;3104088;28;19933;-68
2023/03/09 01:39:49;;;;;;;;;;;;;;;10.02;49.27;99022.81;3106373;28;20000;-70
2023/03/09 01:41:22;;;;;;;;;;;;;;;10.03;49.19;99019.31;3108138;28;19925;-68
2023/03/09 01:42:56;;;;;;;;;;;;;;;10.00;49.59;99019.47;3107928;28;19992;-69
2023/03/09 01:44:27;;;;;;;;;;;;;;;9.98;49.52;99018.72;3107842;28;19925;-70
2023/03/09 01:46:31;;;;;;;;;;;;;;;9.96;49.79;99013.59;3107939;28;19925;-68
2023/03/09 01:48:03;;;;;;;;;;;;;;;9.91;49.60;99015.63;3069950;28;19989;-70
2023/03/09 01:49:37;;;;;;;;;;;;;;;9.89;49.74;99009.66;3064568;28;19930;-70
2023/03/09 01:51:07;;;;;;;;;;;;;;;9.89;49.75;99014.03;3069957;28;19970;-70
2023/03/09 01:52:39;;;;;;;;;;;;;;;9.87;50.06;99010.66;3070285;28;19926;-70
2023/03/09 01:54:16;;;;;;;;;;;;;;;9.83;49.98;99012.59;3104572;28;19965;-69
2023/03/09 01:55:50;;;;;;;;;;;;;;;9.81;50.14;99001.44;3107215;28;19933;-70
2023/03/09 01:57:24;;;;;;;;;;;;;;;9.78;50.36;99007.63;3107942;28;19930;-70
2023/03/09 01:58:56;;;;;;;;;;;;;;;9.76;50.37;99006.91;3107690;28;19929;-69
2023/03/09 02:00:27;;;;;;;;;;;;;;;9.74;50.55;99006.13;3107826;28;20071;-68
2023/03/09 02:02:00;;;;;;;;;;;;;;;9.75;50.47;99004.38;3107748;28;19926;-70
2023/03/09 02:03:34;;;;;;;;;;;;;;;9.77;50.49;99000.75;3107204;28;19929;-69
2023/03/09 02:05:08;;;;;;;;;;;;;;;9.79;50.40;98991.13;3108037;28;20005;-69
2023/03/09 02:06:40;;;;;;;;;;;;;;;9.82;50.43;98994.47;3107704;28;19932;-69
2023/03/09 02:08:12;;;;;;;;;;;;;;;9.83;50.39;98991.78;3107643;28;19936;-69
2023/03/09 02:09:48;;;;;;;;;;;;;;;9.87;50.29;98990.69;3107934;28;19960;-70
2023/03/09 02:11:20;;;;;;;;;;;;;;;9.90;50.14;99000.09;3108301;28;19926;-68
2023/03/09 02:12:54;;;;;;;;;;;;;;;9.93;49.87;98989.50;3108367;28;19997;-70
2023/03/09 02:14:25;;;;;;;;;;;;;;;9.97;50.04;98991.03;3119319;28;20342;-70
2023/03/09 02:15:56;;;;;;;;;;;;;;;9.98;49.89;98990.94;3112307;28;19933;-68
2023/03/09 02:17:28;;;;;;;;;;;;;;;10.01;49.80;98990.78;3110074;28;20020;-69
2023/03/09 02:18:58;;;;;;;;;;;;;;;10.02;49.72;98986.41;3110033;28;19926;-69
2023/03/09 02:20:33;;;;;;;;;;;;;;;10.04;49.80;98992.38;3110022;28;19952;-69
2023/03/09 02:22:03;;;;;;;;;;;;;;;10.04;49.71;98992.38;3109690;28;20121;-69
2023/03/09 02:23:40;;;;;;;;;;;;;;;10.04;49.57;98994.97;3109465;28;20221;-69
2023/03/09 02:25:21;;;;;;;;;;;;;;;10.02;49.74;98992.44;3110072;28;20021;-69
2023/03/09 02:26:54;;;;;;;;;;;;;;;10.03;49.75;98991.53;3109855;28;19933;-69
2023/03/09 02:28:27;;;;;;;;;;;;;;;10.02;49.73;98989.00;3110018;28;19925;-69
2023/03/09 02:29:59;;;;;;;;;;;;;;;10.03;49.78;98990.69;3109708;28;20394;-69
2023/03/09 02:31:30;;;;;;;;;;;;;;;10.02;49.92;98995.03;3109785;28;19925;-69
2023/03/09 02:33:04;;;;;;;;;;;;;;;10.03;49.87;98990.69;3109904;28;19930;-69
2023/03/09 02:34:34;;;;;;;;;;;;;;;10.05;49.65;98991.44;3110041;28;19976;-69
2023/03/09 02:36:06;;;;;;;;;;;;;;;10.05;49.66;98988.81;3109724;28;20540;-69
2023/03/09 02:37:38;;;;;;;;;;;;;;;10.07;49.51;98989.59;3109896;28;19926;-70
2023/03/09 02:39:14;;;;;;;;;;;;;;;10.09;49.75;98984.31;3099928;28;20296;-69
2023/03/09 02:40:46;;;;;;;;;;;;;;;10.12;49.37;98973.75;3110070;28;19925;-68
2023/03/09 02:42:18;;;;;;;;;;;;;;;10.11;49.56;98972.88;3109470;28;19925;-68
2023/03/09 02:43:53;;;;;;;;;;;;;;;10.13;49.61;98965.81;3109518;28;20466;-69
2023/03/09 02:45:25;;;;;;;;;;;;;;;10.15;49.51;98964.00;3098042;28;20040;-69
2023/03/09 02:46:57;;;;;;;;;;;;;;;10.18;49.42;98968.19;3109161;28;20437;-68
2023/03/09 02:48:29;;;;;;;;;;;;;;;10.20;49.39;98968.91;3109683;28;20361;-70
2023/03/09 02:50:01;;;;;;;;;;;;;;;10.23;49.38;98971.34;3109436;28;19926;-69
2023/03/09 02:51:31;;;;;;;;;;;;;;;10.24;49.25;98976.47;3108617;28;20378;-69
2023/03/09 02:53:04;;;;;;;;;;;;;;;10.26;49.30;98976.38;3110056;28;20074;-69
2023/03/09 02:54:34;;;;;;;;;;;;;;;10.28;48.99;98973.72;3109441;28;20422;-69
2023/03/09 02:56:06;;;;;;;;;;;;;;;10.29;49.23;98975.38;3109315;28;19929;-70
2023/03/09 02:57:37;;;;;;;;;;;;;;;10.31;48.87;98973.56;3109673;28;20009;-69
2023/03/09 02:59:10;;;;;;;;;;;;;;;10.33;48.78;98974.31;3109469;28;19925;-69
2023/03/09 03:00:41;;;;;;;;;;;;;;;10.33;48.88;98966.50;3109225;28;19929;-70
2023/03/09 03:02:12;;;;;;;;;;;;;;;10.34;48.85;98968.16;3109467;28;19941;-70
2023/03/09 03:03:43;;;;;;;;;;;;;;;10.34;48.85;98975.97;3109561;28;20081;-70
2023/03/09 03:05:14;;;;;;;;;;;;;;;10.28;49.13;98969.34;3109620;28;19932;-70
2023/03/09 03:06:46;;;;;;;;;;;;;;;10.20;49.00;98964.56;3109122;28;19925;-69
2023/03/09 03:08:16;;;;;;;;;;;;;;;10.14;49.09;98966.66;3109333;28;19983;-70
2023/03/09 03:09:48;;;;;;;;;;;;;;;10.05;49.42;98968.03;3109620;28;20438;-68
2023/03/09 03:11:19;;;;;;;;;;;;;;;9.96;49.24;98984.97;3109723;28;19925;-70
2023/03/09 03:12:50;;;;;;;;;;;;;;;9.91;49.53;98986.16;3109686;28;19936;-70
2023/03/09 03:14:23;;;;;;;;;;;;;;;9.86;49.57;98990.78;3118314;28;19925;-70
2023/03/09 03:15:57;;;;;;;;;;;;;;;9.79;49.39;98993.72;3111817;28;19926;-70
2023/03/09 03:17:28;;;;;;;;;;;;;;;9.75;49.59;98994.81;3109465;28;19932;-70
2023/03/09 03:19:00;;;;;;;;;;;;;;;9.71;49.70;98990.69;3109346;28;20016;-70
2023/03/09 03:20:30;;;;;;;;;;;;;;;9.68;49.50;98993.47;3108716;28;19929;-70
2023/03/09 03:22:02;;;;;;;;;;;;;;;9.66;49.48;98992.72;3109578;28;20404;-70
2023/03/09 03:23:32;;;;;;;;;;;;;;;9.62;49.87;99001.59;3108857;28;20393;-68
2023/03/09 03:25:04;;;;;;;;;;;;;;;9.57;49.94;98990.59;3108941;28;20020;-70
2023/03/09 03:26:35;;;;;;;;;;;;;;;9.51;50.01;98994.38;3109472;28;20483;-69
2023/03/09 03:28:06;;;;;;;;;;;;;;;9.47;50.15;98995.47;3109037;28;19929;-70
2023/03/09 03:29:39;;;;;;;;;;;;;;;9.42;49.89;99009.63;3109312;28;19926;-70
2023/03/09 03:31:10;;;;;;;;;;;;;;;9.37;49.89;98999.47;3109021;28;19936;-70
2023/03/09 03:32:42;;;;;;;;;;;;;;;9.32;50.47;99004.91;3109380;28;20361;-70
2023/03/09 03:34:14;;;;;;;;;;;;;;;9.28;50.21;99012.94;3109004;28;20326;-69
2023/03/09 03:35:45;;;;;;;;;;;;;;;9.24;50.22;99012.28;3108894;28;20330;-70
2023/03/09 03:37:17;;;;;;;;;;;;;;;9.19;50.29;99010.81;3109229;28;19929;-70
2023/03/09 03:38:47;;;;;;;;;;;;;;;9.17;50.28;99012.66;3101338;28;19929;-69
2023/03/09 03:40:19;;;;;;;;;;;;;;;9.14;50.48;99005.88;3107198;28;19979;-69
2023/03/09 03:41:51;;;;;;;;;;;;;;;9.11;50.77;99012.06;3109123;28;19925;-70
2023/03/09 03:43:23;;;;;;;;;;;;;;;9.12;50.52;99015.50;3108688;28;19932;-70
2023/03/09 03:44:55;;;;;;;;;;;;;;;9.13;50.82;99021.53;3109144;28;20438;-70
2023/03/09 03:46:27;;;;;;;;;;;;;;;9.13;50.61;99018.94;3109139;28;19930;-70
2023/03/09 03:47:59;;;;;;;;;;;;;;;9.13;50.58;99017.19;3108051;28;19929;-70
2023/03/09 03:49:30;;;;;;;;;;;;;;;9.14;50.33;99016.28;3108835;28;19925;-70
2023/03/09 03:51:02;;;;;;;;;;;;;;;9.11;50.83;99017.28;3108219;28;20400;-70
2023/03/09 03:52:33;;;;;;;;;;;;;;;9.08;50.95;99019.16;3108530;28;19936;-70
2023/03/09 03:54:05;;;;;;;;;;;;;;;9.07;50.79;99010.53;3108987;28;19953;-70
2023/03/09 03:55:37;;;;;;;;;;;;;;;9.07;51.06;99020.94;3108846;28;19987;-69
2023/03/09 03:57:07;;;;;;;;;;;;;;;9.07;51.03;99017.50;3108769;28;19926;-69
2023/03/09 03:58:39;;;;;;;;;;;;;;;9.07;51.23;99020.09;3108463;28;19925;-68
2023/03/09 04:00:12;;;;;;;;;;;;;;;9.06;51.12;99023.63;3108858;28;19937;-69
2023/03/09 04:01:44;;;;;;;;;;;;;;;9.05;50.97;99027.97;3108849;28;19929;-68
2023/03/09 04:03:15;;;;;;;;;;;;;;;9.05;51.30;99030.56;3108632;28;19925;-69
2023/03/09 04:04:47;;;;;;;;;;;;;;;9.06;51.08;99032.25;3108598;28;19977;-69
2023/03/09 04:06:19;;;;;;;;;;;;;;;9.05;51.15;99027.97;3108452;28;19933;-69
2023/03/09 04:07:51;;;;;;;;;;;;;;;9.04;51.18;99031.47;3108899;28;19960;-69
2023/03/09 04:09:23;;;;;;;;;;;;;;;9.03;51.34;99028.97;3108924;28;20362;-70
2023/03/09 04:10:54;;;;;;;;;;;;;;;9.01;51.33;99033.41;3108876;28;20365;-69
2023/03/09 04:12:26;;;;;;;;;;;;;;;8.98;51.31;99026.59;3108277;28;20691;-69
2023/03/09 04:13:57;;;;;;;;;;;;;;;8.98;51.55;99036.16;3114568;28;19929;-69
2023/03/09 04:15:31;;;;;;;;;;;;;;;8.97;51.56;99027.53;3114121;28;19925;-69
2023/03/09 04:17:02;;;;;;;;;;;;;;;8.97;51.33;99029.28;3108844;28;19929;-70
2023/03/09 04:18:34;;;;;;;;;;;;;;;8.97;51.40;99035.31;3108308;28;19925;-70
2023/03/09 04:20:06;;;;;;;;;;;;;;;8.97;51.48;99040.50;3103825;28;19925;-70
2023/03/09 04:21:38;;;;;;;;;;;;;;;8.96;51.54;99023.25;3108703;28;19932;-70
2023/03/09 04:23:11;;;;;;;;;;;;;;;8.95;51.39;99026.75;3108581;28;19983;-71
2023/03/09 04:24:42;;;;;;;;;;;;;;;8.96;51.58;99028.44;3108712;28;20437;-70
2023/03/09 04:26:14;;;;;;;;;;;;;;;8.95;51.61;99029.34;3108424;28;20387;-70
2023/03/09 04:27:45;;;;;;;;;;;;;;;8.94;51.54;99032.03;3108174;28;19936;-70
2023/03/09 04:29:17;;;;;;;;;;;;;;;8.93;51.42;99038.13;3108532;28;20406;-70
2023/03/09 04:30:50;;;;;;;;;;;;;;;8.89;51.69;99034.84;3108956;28;19936;-70
2023/03/09 04:32:21;;;;;;;;;;;;;;;8.87;51.69;99029.75;3108453;28;19929;-69
2023/03/09 04:33:53;;;;;;;;;;;;;;;8.86;51.53;99038.44;3107359;28;19926;-68
2023/03/09 04:35:24;;;;;;;;;;;;;;;8.84;51.72;99032.50;3107921;28;19949;-69
2023/03/09 04:36:56;;;;;;;;;;;;;;;8.83;51.95;99035.16;3108553;28;20000;-69
2023/03/09 04:38:28;;;;;;;;;;;;;;;8.83;51.82;99041.19;3103349;28;19965;-68
2023/03/09 04:39:59;;;;;;;;;;;;;;;8.83;51.96;99037.75;3103910;28;19925;-69
2023/03/09 04:41:31;;;;;;;;;;;;;;;8.79;51.93;99036.25;3108536;28;19925;-68
2023/03/09 04:43:02;;;;;;;;;;;;;;;8.79;52.00;99036.25;3108008;28;20481;-69
2023/03/09 04:44:34;;;;;;;;;;;;;;;8.79;52.05;99042.28;3107780;28;20756;-69
2023/03/09 04:46:08;;;;;;;;;;;;;;;8.79;52.01;99042.28;3108346;28;19926;-68
2023/03/09 04:47:40;;;;;;;;;;;;;;;8.78;51.87;99039.75;3107994;28;19932;-69
2023/03/09 04:49:11;;;;;;;;;;;;;;;8.75;52.13;99038.13;3107836;28;19929;-70
2023/03/09 04:50:43;;;;;;;;;;;;;;;8.74;52.23;99031.28;3108261;28;19952;-70
2023/03/09 04:52:15;;;;;;;;;;;;;;;8.74;52.08;99033.88;3107780;28;20023;-70
2023/03/09 04:53:47;;;;;;;;;;;;;;;8.76;52.11;99036.41;3108656;28;19929;-68
2023/03/09 04:55:18;;;;;;;;;;;;;;;8.74;52.28;99030.44;3107094;28;19971;-69
2023/03/09 04:56:50;;;;;;;;;;;;;;;8.71;52.14;99028.81;3107940;28;19930;-71
2023/03/09 04:58:22;;;;;;;;;;;;;;;8.70;52.29;99023.72;3108330;28;20381;-71
2023/03/09 04:59:54;;;;;;;;;;;;;;;8.69;52.00;99027.22;3108348;28;19930;-69
2023/03/09 05:01:27;;;;;;;;;;;;;;;8.65;52.31;99029.97;3108157;28;19929;-74
2023/03/09 05:02:58;;;;;;;;;;;;;;;8.68;52.35;99028.97;3105358;28;19930;-71
2023/03/09 05:04:29;;;;;;;;;;;;;;;8.68;52.36;99023.78;3097641;28;19926;-71
2023/03/09 05:06:01;;;;;;;;;;;;;;;8.69;52.29;99033.25;3105782;28;19972;-71
2023/03/09 05:07:33;;;;;;;;;;;;;;;8.71;52.26;99034.03;3108245;28;19925;-69
2023/03/09 05:09:05;;;;;;;;;;;;;;;8.72;52.11;99030.50;3107339;28;20777;-68
2023/03/09 05:10:37;;;;;;;;;;;;;;;8.70;52.05;99034.94;3100365;28;20019;-71
2023/03/09 05:12:08;;;;;;;;;;;;;;;8.67;52.35;99027.31;3102905;28;19968;-68
2023/03/09 05:13:40;;;;;;;;;;;;;;;8.69;52.28;99030.66;3106780;28;20452;-69
2023/03/09 05:15:12;;;;;;;;;;;;;;;8.68;52.35;99028.97;3102596;28;20326;-68
2023/03/09 05:16:45;;;;;;;;;;;;;;;8.69;52.19;99035.84;3105652;28;19933;-69
2023/03/09 05:18:16;;;;;;;;;;;;;;;8.70;52.27;99036.72;3107898;28;19976;-70
2023/03/09 05:19:48;;;;;;;;;;;;;;;8.70;52.14;99032.34;3107576;28;19925;-69
2023/03/09 05:21:18;;;;;;;;;;;;;;;8.69;52.28;99037.59;3107953;28;19925;-67
2023/03/09 05:22:50;;;;;;;;;;;;;;;8.69;52.28;99028.06;3107999;28;19929;-71
2023/03/09 05:24:20;;;;;;;;;;;;;;;8.67;52.13;99037.69;3107810;28;19964;-73
2023/03/09 05:25:58;;;;;;;;;;;;;;;8.67;52.33;99032.50;3107661;28;19926;-75
2023/03/09 05:27:30;;;;;;;;;;;;;;;8.65;52.31;99029.97;3107588;28;19933;-70
2023/03/09 05:29:02;;;;;;;;;;;;;;;8.63;52.30;99030.97;3107418;28;20390;-69
2023/03/09 05:30:32;;;;;;;;;;;;;;;8.64;52.42;99027.47;3107668;28;20292;-69
2023/03/09 05:32:06;;;;;;;;;;;;;;;8.64;52.21;99027.47;3107341;28;19987;-72
2023/03/09 05:33:38;;;;;;;;;;;;;;;8.62;52.44;99032.72;3107136;28;19987;-68
2023/03/09 05:35:09;;;;;;;;;;;;;;;8.65;52.23;99039.53;3106995;28;20033;-69
2023/03/09 05:36:41;;;;;;;;;;;;;;;8.64;52.23;99033.50;3106928;28;19925;-66
2023/03/09 05:38:12;;;;;;;;;;;;;;;8.64;52.27;99030.91;3106492;28;20020;-67
2023/03/09 05:39:44;;;;;;;;;;;;;;;8.64;52.32;99027.47;3107182;28;19992;-71
2023/03/09 05:41:16;;;;;;;;;;;;;;;8.66;52.48;99036.00;3107033;28;20406;-69
2023/03/09 05:42:47;;;;;;;;;;;;;;;8.67;52.60;99032.50;3108206;28;19925;-67
2023/03/09 05:44:19;;;;;;;;;;;;;;;8.69;52.60;99035.84;3106841;28;19992;-67
2023/03/09 05:45:56;;;;;;;;;;;;;;;8.69;52.42;99030.66;3107891;28;20005;-67
2023/03/09 05:47:30;;;;;;;;;;;;;;;8.72;52.82;99027.91;3109588;28;20012;-66
2023/03/09 05:49:00;;;;;;;;;;;;;;;8.76;52.62;99023.41;3109068;28;20377;-67
2023/03/09 05:50:32;;;;;;;;;;;;;;;8.79;52.69;99026.69;3109916;28;20008;-67
2023/03/09 05:52:04;;;;;;;;;;;;;;;8.81;52.70;99035.22;3110095;28;19976;-66
2023/03/09 05:53:35;;;;;;;;;;;;;;;8.83;52.57;99032.56;3110383;28;19929;-66
2023/03/09 05:55:07;;;;;;;;;;;;;;;8.85;52.49;99034.19;3109807;28;19937;-66
2023/03/09 05:56:38;;;;;;;;;;;;;;;8.88;52.79;99036.63;3110206;28;20166;-68
2023/03/09 05:58:10;;;;;;;;;;;;;;;8.92;52.53;99046.84;3110453;28;19925;-67
2023/03/09 05:59:42;;;;;;;;;;;;;;;8.93;52.28;99049.34;3110242;28;19929;-66
2023/03/09 06:01:19;;;;;;;;;;;;;;;8.95;52.38;99042.34;3110481;28;19925;-67
2023/03/09 06:02:52;;;;;;;;;;;;;;;9.00;52.54;99034.31;3110127;28;19941;-69
2023/03/09 06:04:23;;;;;;;;;;;;;;;9.01;52.37;99036.00;3109847;28;19929;-72
2023/03/09 06:06:00;;;;;;;;;;;;;;;9.06;52.51;99036.59;3110233;28;20463;-69
2023/03/09 06:07:32;;;;;;;;;;;;;;;9.11;52.38;99035.44;3110347;28;19930;-69
2023/03/09 06:09:04;;;;;;;;;;;;;;;9.19;52.45;99037.63;3110246;28;19929;-68
2023/03/09 06:10:36;;;;;;;;;;;;;;;9.25;52.06;99044.28;3109688;28;20330;-68
2023/03/09 06:12:08;;;;;;;;;;;;;;;9.31;52.16;99037.00;3110282;28;20476;-68
2023/03/09 06:13:40;;;;;;;;;;;;;;;9.37;52.08;99041.03;3113105;28;20494;-71
2023/03/09 06:15:11;;;;;;;;;;;;;;;9.43;52.16;99038.13;3114821;28;20738;-72
2023/03/09 06:16:43;;;;;;;;;;;;;;;9.49;51.84;99035.19;3109710;28;19937;-73
2023/03/09 06:18:17;;;;;;;;;;;;;;;9.57;51.94;99038.22;3109339;28;19925;-73
2023/03/09 06:19:51;;;;;;;;;;;;;;;9.68;51.57;99031.63;3109769;28;19925;-72
2023/03/09 06:21:23;;;;;;;;;;;;;;;9.78;51.73;99030.19;3110135;28;19973;-70
2023/03/09 06:22:55;;;;;;;;;;;;;;;9.90;51.42;99032.13;3109954;28;20337;-73
2023/03/09 06:24:26;;;;;;;;;;;;;;;10.02;51.47;99035.81;3109186;28;19933;-73
2023/03/09 06:25:58;;;;;;;;;;;;;;;10.13;51.32;99032.63;3109009;28;20548;-73
2023/03/09 06:27:30;;;;;;;;;;;;;;;10.27;51.22;99037.94;3108840;28;19926;-73
2023/03/09 06:29:01;;;;;;;;;;;;;;;10.40;50.79;99046.72;3108598;28;19935;-74
2023/03/09 06:30:32;;;;;;;;;;;;;;;10.55;50.57;99046.78;3108569;28;20390;-74
2023/03/09 06:32:04;;;;;;;;;;;;;;;10.70;50.54;99054.56;3108953;28;19929;-73
2023/03/09 06:33:37;;;;;;;;;;;;;;;10.88;50.18;99054.41;3109333;28;19929;-74
2023/03/09 06:35:08;;;;;;;;;;;;;;;11.05;50.10;99059.47;3108779;28;19926;-73
2023/03/09 06:36:40;;;;;;;;;;;;;;;11.25;50.12;99057.47;3108459;28;20369;-72
2023/03/09 06:38:11;;;;;;;;;;;;;;;11.46;50.15;99057.94;3107015;28;20338;-73
2023/03/09 06:39:43;;;;;;;;;;;;;;;11.68;49.79;99050.47;3109242;28;20322;-72
2023/03/09 06:41:15;;;;;;;;;;;;;;;11.92;49.44;99049.91;3109564;28;19932;-73
2023/03/09 06:42:47;;;;;;;;;;;;;;;12.16;49.49;99045.78;3109545;28;19934;-73
2023/03/09 06:44:18;;;;;;;;;;;;;;;12.40;48.84;99035.53;3109750;28;19952;-73
2023/03/09 06:45:50;;;;;;;;;;;;;;;12.62;48.81;99045.41;3109680;28;19925;-73
2023/03/09 06:47:22;;;;;;;;;;;;;;;12.79;48.21;99043.47;3109637;28;19996;-73
2023/03/09 06:48:55;;;;;;;;;;;;;;;12.92;48.06;99037.31;3109493;28;20036;-73
2023/03/09 06:50:26;;;;;;;;;;;;;;;13.02;47.60;99042.78;3109696;28;19930;-73
2023/03/09 06:51:58;;;;;;;;;;;;;;;13.08;47.57;99033.69;3109382;28;19984;-73
2023/03/09 06:53:29;;;;;;;;;;;;;;;13.13;47.05;99036.78;3109890;28;19925;-73
2023/03/09 06:55:01;;;;;;;;;;;;;;;13.12;46.67;99035.13;3109473;28;19926;-73
2023/03/09 06:56:33;;;;;;;;;;;;;;;13.11;46.27;99031.69;3109200;28;19925;-73
2023/03/09 06:58:04;;;;;;;;;;;;;;;13.13;46.23;99034.19;3109798;28;20032;-73
2023/03/09 06:59:36;;;;;;;;;;;;;;;13.24;46.54;99031.69;3109015;28;19932;-73
2023/03/09 07:01:07;;;;;;;;;;;;;;;13.36;46.12;99030.03;3109682;28;19937;-73
2023/03/09 07:02:38;;;;;;;;;;;;;;;13.46;46.24;99035.47;3109032;28;19926;-73
2023/03/09 07:04:11;;;;;;;;;;;;;;;13.50;45.65;99039.56;3109163;28;19997;-73
2023/03/09 07:05:43;;;;;;;;;;;;;;;13.56;45.60;99039.13;3097429;28;19948;-73
2023/03/09 07:07:15;;;;;;;;;;;;;;;13.65;45.71;99036.69;3109201;28;19975;-73
2023/03/09 07:08:46;;;;;;;;;;;;;;;13.72;45.36;99031.03;3109497;28;19974;-73
2023/03/09 07:10:18;;;;;;;;;;;;;;;13.71;45.06;99039.84;3109277;28;20425;-72
2023/03/09 07:11:49;;;;;;;;;;;;;;;13.76;44.97;99035.94;3109418;28;19995;-73
2023/03/09 07:13:21;;;;;;;;;;;;;;;13.77;44.84;99039.41;3110527;28;19926;-73
2023/03/09 07:14:52;;;;;;;;;;;;;;;13.80;44.38;99032.16;3114011;28;19932;-73
2023/03/09 07:16:24;;;;;;;;;;;;;;;13.89;44.42;99038.53;3108957;28;19947;-73
2023/03/09 07:17:56;;;;;;;;;;;;;;;14.01;44.52;99035.03;3109003;28;19995;-74
2023/03/09 07:19:29;;;;;;;;;;;;;;;14.18;44.29;99033.00;3109456;28;20023;-73
2023/03/09 07:21:01;;;;;;;;;;;;;;;14.41;44.17;99032.16;3109559;28;19925;-74
2023/03/09 07:22:32;;;;;;;;;;;;;;;14.61;43.83;99028.13;3109276;28;20016;-74
2023/03/09 07:24:04;;;;;;;;;;;;;;;14.78;43.74;99032.91;3109521;28;20398;-73
2023/03/09 07:25:36;;;;;;;;;;;;;;;14.97;43.28;99037.63;3108943;28;20318;-73
2023/03/09 07:27:08;;;;;;;;;;;;;;;15.13;42.71;99032.03;3109341;28;19934;-73
2023/03/09 07:28:40;;;;;;;;;;;;;;;15.25;42.35;99032.91;3109177;28;19969;-74
2023/03/09 07:30:12;;;;;;;;;;;;;;;15.36;42.28;99029.47;3109389;28;19930;-73
2023/03/09 07:31:43;;;;;;;;;;;;;;;15.45;42.07;99029.56;3108999;28;20446;-72
2023/03/09 07:33:15;;;;;;;;;;;;;;;15.57;42.32;99024.34;3107497;28;19925;-72
2023/03/09 07:34:48;;;;;;;;;;;;;;;15.72;42.39;99017.06;3109173;28;19929;-72
2023/03/09 07:36:19;;;;;;;;;;;;;;;15.87;41.84;99021.09;3109295;28;19925;-72
2023/03/09 07:37:51;;;;;;;;;;;;;;;15.97;42.04;99022.03;3109020;28;19925;-72
2023/03/09 07:39:22;;;;;;;;;;;;;;;16.11;41.75;99018.31;3109248;28;19925;-73
2023/03/09 07:40:54;;;;;;;;;;;;;;;16.24;41.96;99016.38;3108425;28;19995;-73
2023/03/09 07:42:25;;;;;;;;;;;;;;;16.32;41.47;99023.63;3108727;28;19925;-73
2023/03/09 07:43:58;;;;;;;;;;;;;;;16.32;41.58;99013.13;3109020;28;19992;-73
2023/03/09 07:45:30;;;;;;;;;;;;;;;16.37;41.41;99022.28;3104389;28;19976;-71
2023/03/09 07:47:02;;;;;;;;;;;;;;;16.34;40.84;99019.09;3108779;28;19984;-70
2023/03/09 07:48:34;;;;;;;;;;;;;;;16.24;41.11;99021.63;3109011;28;19945;-67
2023/03/09 07:50:07;;;;;;;;;;;;;;;16.14;41.23;99018.06;3108996;28;19925;-68
2023/03/09 07:51:39;;;;;;;;;;;;;;;16.01;41.39;99020.84;3097115;28;19933;-72
2023/03/09 07:53:11;;;;;;;;;;;;;;;15.92;41.73;99018.97;3108476;28;20394;-70
2023/03/09 07:54:42;;;;;;;;;;;;;;;15.87;41.62;99008.81;3108302;28;19975;-72
2023/03/09 07:56:14;;;;;;;;;;;;;;;15.94;42.02;99017.03;3107022;28;19975;-71
2023/03/09 07:57:45;;;;;;;;;;;;;;;16.03;41.91;99012.84;3108820;28;19980;-69
2023/03/09 07:59:18;;;;;;;;;;;;;;;16.03;41.58;99018.94;3109053;28;19937;-70
2023/03/09 08:00:49;;;;;;;;;;;;;;;16.06;41.90;99015.22;3108621;28;20376;-73
2023/03/09 08:02:21;;;;;;;;;;;;;;;16.13;41.91;99022.50;3107463;28;19956;-70